Schofer, Pennsylvania
Current Conditions -  °F | °C
As of 1:54 PM on Sunday 21 Dec 2014 (Local Time) from KRDG Reporting Station
Overcast Overcast  
Wind Chill: 29°   Ceiling: 2800
Heat Index: 34°   Visibility: 10mi
Dew Point: 21°   Wind: 6mph
Humidity: 59%   Direction: 30°NNE
Pressure: 30.3"   Gusts: NA
Location:  40.5336°N, 75.7775°W
Report Text: KRDG 211854Z AUTO 03005KT 10SM OVC028 01/M06 A3030 RMK AO2 SLP267 T00111061
Loading
Personal Weather Stations






























Interactive Weather Map New forecast layout! Learn more

10-Day Weather Forecast

Advertisements
Track Severe Weather on mobile